sensor_id;sensor_type;location;lat;lon;timestamp;temperature;humidity
62589;DHT22;58504;48.770;9.148;2023-12-14T00:02:11;24.00;50.80
62589;DHT22;58504;48.770;9.148;2023-12-14T00:04:38;24.00;51.00
62589;DHT22;58504;48.770;9.148;2023-12-14T00:07:08;23.90;51.10
62589;DHT22;58504;48.770;9.148;2023-12-14T00:09:36;23.80;51.20
62589;DHT22;58504;48.770;9.148;2023-12-14T00:12:03;23.80;51.40
62589;DHT22;58504;48.770;9.148;2023-12-14T00:14:29;23.70;51.40
62589;DHT22;58504;48.770;9.148;2023-12-14T00:16:56;23.70;51.50
62589;DHT22;58504;48.770;9.148;2023-12-14T00:19:24;23.60;51.60
62589;DHT22;58504;48.770;9.148;2023-12-14T00:21:51;23.50;51.70
62589;DHT22;58504;48.770;9.148;2023-12-14T00:24:19;23.50;51.80
62589;DHT22;58504;48.770;9.148;2023-12-14T00:26:46;23.50;51.90
62589;DHT22;58504;48.770;9.148;2023-12-14T00:29:13;23.40;52.20
62589;DHT22;58504;48.770;9.148;2023-12-14T00:31:39;23.40;52.10
62589;DHT22;58504;48.770;9.148;2023-12-14T00:34:06;23.40;52.10
62589;DHT22;58504;48.770;9.148;2023-12-14T00:36:33;23.30;52.10
62589;DHT22;58504;48.770;9.148;2023-12-14T00:39:00;23.30;52.10
62589;DHT22;58504;48.770;9.148;2023-12-14T00:41:28;23.30;52.10
62589;DHT22;58504;48.770;9.148;2023-12-14T00:43:54;23.20;52.20
62589;DHT22;58504;48.770;9.148;2023-12-14T00:46:21;23.10;52.10
62589;DHT22;58504;48.770;9.148;2023-12-14T00:48:48;23.20;52.30
62589;DHT22;58504;48.770;9.148;2023-12-14T00:51:15;23.10;52.30
62589;DHT22;58504;48.770;9.148;2023-12-14T00:53:41;23.00;52.20
62589;DHT22;58504;48.770;9.148;2023-12-14T00:56:08;23.00;52.30
62589;DHT22;58504;48.770;9.148;2023-12-14T00:58:37;23.00;52.40
62589;DHT22;58504;48.770;9.148;2023-12-14T01:01:04;22.90;52.30
62589;DHT22;58504;48.770;9.148;2023-12-14T01:03:30;23.00;52.40
62589;DHT22;58504;48.770;9.148;2023-12-14T01:05:57;22.90;52.40
62589;DHT22;58504;48.770;9.148;2023-12-14T01:08:24;22.90;52.40
62589;DHT22;58504;48.770;9.148;2023-12-14T01:10:51;22.90;52.40
62589;DHT22;58504;48.770;9.148;2023-12-14T01:13:18;22.80;52.40
62589;DHT22;58504;48.770;9.148;2023-12-14T01:15:46;22.80;52.40
62589;DHT22;58504;48.770;9.148;2023-12-14T01:18:13;22.80;52.40
62589;DHT22;58504;48.770;9.148;2023-12-14T01:20:40;22.80;52.50
62589;DHT22;58504;48.770;9.148;2023-12-14T01:23:07;22.70;52.40
62589;DHT22;58504;48.770;9.148;2023-12-14T01:25:35;22.70;52.50
62589;DHT22;58504;48.770;9.148;2023-12-14T01:28:02;22.60;52.50
62589;DHT22;58504;48.770;9.148;2023-12-14T01:30:28;22.60;52.50
62589;DHT22;58504;48.770;9.148;2023-12-14T01:32:56;22.60;53.10
62589;DHT22;58504;48.770;9.148;2023-12-14T01:35:23;22.60;52.50
62589;DHT22;58504;48.770;9.148;2023-12-14T01:37:50;22.50;52.50
62589;DHT22;58504;48.770;9.148;2023-12-14T01:40:19;22.50;52.50
62589;DHT22;58504;48.770;9.148;2023-12-14T01:42:46;22.50;52.50
62589;DHT22;58504;48.770;9.148;2023-12-14T01:45:13;22.50;52.60
62589;DHT22;58504;48.770;9.148;2023-12-14T01:47:41;22.40;52.50
62589;DHT22;58504;48.770;9.148;2023-12-14T01:50:09;22.40;52.50
62589;DHT22;58504;48.770;9.148;2023-12-14T01:52:36;22.40;52.50
62589;DHT22;58504;48.770;9.148;2023-12-14T01:55:03;22.40;52.60
62589;DHT22;58504;48.770;9.148;2023-12-14T01:57:30;22.30;52.50
62589;DHT22;58504;48.770;9.148;2023-12-14T01:59:57;22.30;52.50
62589;DHT22;58504;48.770;9.148;2023-12-14T02:02:24;22.30;52.60
62589;DHT22;58504;48.770;9.148;2023-12-14T02:04:50;22.30;52.60
62589;DHT22;58504;48.770;9.148;2023-12-14T02:07:19;22.20;52.50
62589;DHT22;58504;48.770;9.148;2023-12-14T02:09:46;22.30;52.60
62589;DHT22;58504;48.770;9.148;2023-12-14T02:12:12;22.20;52.60
62589;DHT22;58504;48.770;9.148;2023-12-14T02:14:39;22.20;52.60
62589;DHT22;58504;48.770;9.148;2023-12-14T02:17:06;22.20;52.70
62589;DHT22;58504;48.770;9.148;2023-12-14T02:19:32;22.20;52.70
62589;DHT22;58504;48.770;9.148;2023-12-14T02:21:59;22.10;52.60
62589;DHT22;58504;48.770;9.148;2023-12-14T02:24:27;22.10;52.60
62589;DHT22;58504;48.770;9.148;2023-12-14T02:26:54;22.10;52.60
62589;DHT22;58504;48.770;9.148;2023-12-14T02:29:21;22.10;52.70
62589;DHT22;58504;48.770;9.148;2023-12-14T02:31:48;22.10;52.80
62589;DHT22;58504;48.770;9.148;2023-12-14T02:34:15;22.10;52.80
62589;DHT22;58504;48.770;9.148;2023-12-14T02:36:41;22.10;52.80
62589;DHT22;58504;48.770;9.148;2023-12-14T02:39:08;22.00;52.70
62589;DHT22;58504;48.770;9.148;2023-12-14T02:41:36;22.00;52.70
62589;DHT22;58504;48.770;9.148;2023-12-14T02:44:03;22.00;52.70
62589;DHT22;58504;48.770;9.148;2023-12-14T02:46:30;22.00;52.80
62589;DHT22;58504;48.770;9.148;2023-12-14T02:48:57;22.00;52.80
62589;DHT22;58504;48.770;9.148;2023-12-14T02:51:23;22.00;52.90
62589;DHT22;58504;48.770;9.148;2023-12-14T02:53:50;21.90;52.80
62589;DHT22;58504;48.770;9.148;2023-12-14T02:56:17;21.90;52.90
62589;DHT22;58504;48.770;9.148;2023-12-14T02:58:45;21.90;52.90
62589;DHT22;58504;48.770;9.148;2023-12-14T03:01:18;21.90;53.00
62589;DHT22;58504;48.770;9.148;2023-12-14T03:03:45;21.90;53.00
62589;DHT22;58504;48.770;9.148;2023-12-14T03:06:12;21.90;53.00
62589;DHT22;58504;48.770;9.148;2023-12-14T03:08:38;21.80;53.00
62589;DHT22;58504;48.770;9.148;2023-12-14T03:11:05;21.80;53.00
62589;DHT22;58504;48.770;9.148;2023-12-14T03:13:32;21.80;53.10
62589;DHT22;58504;48.770;9.148;2023-12-14T03:16:00;21.80;53.00
62589;DHT22;58504;48.770;9.148;2023-12-14T03:18:27;21.80;53.00
62589;DHT22;58504;48.770;9.148;2023-12-14T03:20:54;21.90;52.90
62589;DHT22;58504;48.770;9.148;2023-12-14T03:23:20;22.10;52.60
62589;DHT22;58504;48.770;9.148;2023-12-14T03:25:47;22.40;52.40
62589;DHT22;58504;48.770;9.148;2023-12-14T03:28:14;22.60;52.20
62589;DHT22;58504;48.770;9.148;2023-12-14T03:30:41;22.90;51.90
62589;DHT22;58504;48.770;9.148;2023-12-14T03:33:09;23.00;51.70
62589;DHT22;58504;48.770;9.148;2023-12-14T03:35:36;23.20;51.50
62589;DHT22;58504;48.770;9.148;2023-12-14T03:38:03;23.30;51.40
62589;DHT22;58504;48.770;9.148;2023-12-14T03:40:29;23.40;51.30
62589;DHT22;58504;48.770;9.148;2023-12-14T03:42:56;23.50;51.20
62589;DHT22;58504;48.770;9.148;2023-12-14T03:45:23;23.50;51.00
62589;DHT22;58504;48.770;9.148;2023-12-14T03:47:50;23.60;51.00
62589;DHT22;58504;48.770;9.148;2023-12-14T03:50:18;23.70;51.00
62589;DHT22;58504;48.770;9.148;2023-12-14T03:52:44;23.70;50.80
62589;DHT22;58504;48.770;9.148;2023-12-14T03:55:12;23.80;50.80
62589;DHT22;58504;48.770;9.148;2023-12-14T03:57:40;23.80;50.70
62589;DHT22;58504;48.770;9.148;2023-12-14T04:00:10;23.90;50.70
62589;DHT22;58504;48.770;9.148;2023-12-14T04:02:37;23.90;50.50
62589;DHT22;58504;48.770;9.148;2023-12-14T04:05:04;24.00;50.50
62589;DHT22;58504;48.770;9.148;2023-12-14T04:07:32;24.00;50.40
62589;DHT22;58504;48.770;9.148;2023-12-14T04:10:00;24.00;50.30
62589;DHT22;58504;48.770;9.148;2023-12-14T04:12:27;24.10;50.30
62589;DHT22;58504;48.770;9.148;2023-12-14T04:14:54;24.10;50.20
62589;DHT22;58504;48.770;9.148;2023-12-14T04:17:20;24.10;50.20
62589;DHT22;58504;48.770;9.148;2023-12-14T04:19:47;24.10;50.10
62589;DHT22;58504;48.770;9.148;2023-12-14T04:22:14;24.20;50.10
62589;DHT22;58504;48.770;9.148;2023-12-14T04:24:42;24.20;50.00
62589;DHT22;58504;48.770;9.148;2023-12-14T04:27:08;24.20;50.00
62589;DHT22;58504;48.770;9.148;2023-12-14T04:29:35;24.30;50.00
62589;DHT22;58504;48.770;9.148;2023-12-14T04:32:02;24.30;49.90
62589;DHT22;58504;48.770;9.148;2023-12-14T04:34:29;24.30;49.90
62589;DHT22;58504;48.770;9.148;2023-12-14T04:36:55;24.30;49.80
62589;DHT22;58504;48.770;9.148;2023-12-14T04:39:23;24.30;49.70
62589;DHT22;58504;48.770;9.148;2023-12-14T04:41:52;24.30;49.70
62589;DHT22;58504;48.770;9.148;2023-12-14T04:44:19;24.40;49.80
62589;DHT22;58504;48.770;9.148;2023-12-14T04:46:46;24.40;49.70
62589;DHT22;58504;48.770;9.148;2023-12-14T04:49:13;24.40;49.70
62589;DHT22;58504;48.770;9.148;2023-12-14T04:51:40;24.50;49.70
62589;DHT22;58504;48.770;9.148;2023-12-14T04:54:08;24.50;49.70
62589;DHT22;58504;48.770;9.148;2023-12-14T04:56:34;24.50;49.70
62589;DHT22;58504;48.770;9.148;2023-12-14T04:59:02;24.50;49.60
62589;DHT22;58504;48.770;9.148;2023-12-14T05:01:29;24.50;49.60
62589;DHT22;58504;48.770;9.148;2023-12-14T05:03:56;24.50;49.60
62589;DHT22;58504;48.770;9.148;2023-12-14T05:06:23;24.50;49.60
62589;DHT22;58504;48.770;9.148;2023-12-14T05:08:49;24.50;49.50
62589;DHT22;58504;48.770;9.148;2023-12-14T05:11:16;24.50;49.50
62589;DHT22;58504;48.770;9.148;2023-12-14T05:13:44;24.50;49.40
62589;DHT22;58504;48.770;9.148;2023-12-14T05:16:14;24.60;49.50
62589;DHT22;58504;48.770;9.148;2023-12-14T05:18:41;24.60;49.40
62589;DHT22;58504;48.770;9.148;2023-12-14T05:21:08;24.60;49.40
62589;DHT22;58504;48.770;9.148;2023-12-14T05:23:35;24.60;49.40
62589;DHT22;58504;48.770;9.148;2023-12-14T05:26:01;24.60;49.30
62589;DHT22;58504;48.770;9.148;2023-12-14T05:28:28;24.60;49.30
62589;DHT22;58504;48.770;9.148;2023-12-14T05:30:55;24.60;49.30
62589;DHT22;58504;48.770;9.148;2023-12-14T05:33:23;24.60;49.30
62589;DHT22;58504;48.770;9.148;2023-12-14T05:35:50;24.60;49.20
62589;DHT22;58504;48.770;9.148;2023-12-14T05:38:17;24.70;49.30
62589;DHT22;58504;48.770;9.148;2023-12-14T05:40:43;24.70;49.20
62589;DHT22;58504;48.770;9.148;2023-12-14T05:43:10;24.70;49.20
62589;DHT22;58504;48.770;9.148;2023-12-14T05:45:37;24.60;49.20
62589;DHT22;58504;48.770;9.148;2023-12-14T05:48:05;24.70;49.20
62589;DHT22;58504;48.770;9.148;2023-12-14T05:50:33;24.70;49.20
62589;DHT22;58504;48.770;9.148;2023-12-14T05:52:59;24.70;49.10
62589;DHT22;58504;48.770;9.148;2023-12-14T05:55:26;24.70;49.10
62589;DHT22;58504;48.770;9.148;2023-12-14T05:57:53;24.70;49.10
62589;DHT22;58504;48.770;9.148;2023-12-14T06:00:20;24.70;49.00
62589;DHT22;58504;48.770;9.148;2023-12-14T06:02:47;24.70;49.00
62589;DHT22;58504;48.770;9.148;2023-12-14T06:05:14;24.70;49.00
62589;DHT22;58504;48.770;9.148;2023-12-14T06:07:42;24.70;49.00
62589;DHT22;58504;48.770;9.148;2023-12-14T06:10:10;24.70;49.00
62589;DHT22;58504;48.770;9.148;2023-12-14T06:12:36;24.70;48.90
62589;DHT22;58504;48.770;9.148;2023-12-14T06:15:04;24.70;48.90
62589;DHT22;58504;48.770;9.148;2023-12-14T06:17:31;24.70;48.90
62589;DHT22;58504;48.770;9.148;2023-12-14T06:19:59;24.70;48.90
62589;DHT22;58504;48.770;9.148;2023-12-14T06:22:26;24.70;48.90
62589;DHT22;58504;48.770;9.148;2023-12-14T06:24:54;24.70;48.90
62589;DHT22;58504;48.770;9.148;2023-12-14T06:27:21;24.70;48.80
62589;DHT22;58504;48.770;9.148;2023-12-14T06:29:51;24.80;48.90
62589;DHT22;58504;48.770;9.148;2023-12-14T06:32:18;24.80;48.90
62589;DHT22;58504;48.770;9.148;2023-12-14T06:34:45;24.70;48.80
62589;DHT22;58504;48.770;9.148;2023-12-14T06:37:11;24.80;48.90
62589;DHT22;58504;48.770;9.148;2023-12-14T06:39:40;24.80;48.90
62589;DHT22;58504;48.770;9.148;2023-12-14T06:42:08;24.80;48.90
62589;DHT22;58504;48.770;9.148;2023-12-14T06:44:35;24.80;48.80
62589;DHT22;58504;48.770;9.148;2023-12-14T06:47:02;24.80;48.90
62589;DHT22;58504;48.770;9.148;2023-12-14T06:49:28;24.70;48.80
62589;DHT22;58504;48.770;9.148;2023-12-14T06:51:55;24.70;48.90
62589;DHT22;58504;48.770;9.148;2023-12-14T06:54:23;24.70;48.90
62589;DHT22;58504;48.770;9.148;2023-12-14T06:56:49;24.70;49.00
62589;DHT22;58504;48.770;9.148;2023-12-14T06:59:18;24.70;49.00
62589;DHT22;58504;48.770;9.148;2023-12-14T07:01:44;24.60;48.90
62589;DHT22;58504;48.770;9.148;2023-12-14T07:04:11;24.70;49.00
62589;DHT22;58504;48.770;9.148;2023-12-14T07:06:38;24.70;49.00
62589;DHT22;58504;48.770;9.148;2023-12-14T07:09:04;24.70;49.00
62589;DHT22;58504;48.770;9.148;2023-12-14T07:11:31;24.70;48.90
62589;DHT22;58504;48.770;9.148;2023-12-14T07:13:58;24.70;48.80
62589;DHT22;58504;48.770;9.148;2023-12-14T07:16:26;24.70;48.80
62589;DHT22;58504;48.770;9.148;2023-12-14T07:18:53;24.80;48.90
62589;DHT22;58504;48.770;9.148;2023-12-14T07:21:20;24.80;48.90
62589;DHT22;58504;48.770;9.148;2023-12-14T07:23:47;24.80;48.80
62589;DHT22;58504;48.770;9.148;2023-12-14T07:26:14;24.80;48.80
62589;DHT22;58504;48.770;9.148;2023-12-14T07:28:41;24.80;48.70
62589;DHT22;58504;48.770;9.148;2023-12-14T07:31:08;24.80;48.70
62589;DHT22;58504;48.770;9.148;2023-12-14T07:33:36;24.80;48.70
62589;DHT22;58504;48.770;9.148;2023-12-14T07:36:03;24.80;48.60
62589;DHT22;58504;48.770;9.148;2023-12-14T07:38:31;24.80;48.60
62589;DHT22;58504;48.770;9.148;2023-12-14T07:40:57;24.80;48.50
62589;DHT22;58504;48.770;9.148;2023-12-14T07:43:24;24.80;48.20
62589;DHT22;58504;48.770;9.148;2023-12-14T07:45:51;24.90;48.10
62589;DHT22;58504;48.770;9.148;2023-12-14T07:48:18;24.80;47.80
62589;DHT22;58504;48.770;9.148;2023-12-14T07:50:46;24.80;47.60
62589;DHT22;58504;48.770;9.148;2023-12-14T07:53:14;24.80;47.50
62589;DHT22;58504;48.770;9.148;2023-12-14T07:55:40;24.80;48.00
62589;DHT22;58504;48.770;9.148;2023-12-14T07:58:07;24.90;47.50
62589;DHT22;58504;48.770;9.148;2023-12-14T08:00:34;24.80;48.10
62589;DHT22;58504;48.770;9.148;2023-12-14T08:03:01;24.90;48.20
62589;DHT22;58504;48.770;9.148;2023-12-14T08:05:28;24.90;48.00
62589;DHT22;58504;48.770;9.148;2023-12-14T08:07:56;24.90;47.90
62589;DHT22;58504;48.770;9.148;2023-12-14T08:10:22;25.00;48.10
62589;DHT22;58504;48.770;9.148;2023-12-14T08:12:49;25.10;48.40
62589;DHT22;58504;48.770;9.148;2023-12-14T08:15:17;25.10;48.10
62589;DHT22;58504;48.770;9.148;2023-12-14T08:17:44;25.20;48.00
62589;DHT22;58504;48.770;9.148;2023-12-14T08:20:11;25.30;48.00
62589;DHT22;58504;48.770;9.148;2023-12-14T08:22:38;25.30;48.00
62589;DHT22;58504;48.770;9.148;2023-12-14T08:25:12;25.40;48.00
62589;DHT22;58504;48.770;9.148;2023-12-14T08:27:40;25.40;48.40
62589;DHT22;58504;48.770;9.148;2023-12-14T08:30:08;25.50;48.50
62589;DHT22;58504;48.770;9.148;2023-12-14T08:32:34;25.50;48.30
62589;DHT22;58504;48.770;9.148;2023-12-14T08:35:01;25.50;48.10
62589;DHT22;58504;48.770;9.148;2023-12-14T08:37:28;25.50;47.90
62589;DHT22;58504;48.770;9.148;2023-12-14T08:39:55;25.60;47.80
62589;DHT22;58504;48.770;9.148;2023-12-14T08:42:23;25.50;47.70
62589;DHT22;58504;48.770;9.148;2023-12-14T08:44:50;25.60;47.50
62589;DHT22;58504;48.770;9.148;2023-12-14T08:47:16;25.50;47.40
62589;DHT22;58504;48.770;9.148;2023-12-14T08:49:43;25.60;47.20
62589;DHT22;58504;48.770;9.148;2023-12-14T08:52:10;25.60;47.00
62589;DHT22;58504;48.770;9.148;2023-12-14T08:54:37;25.60;46.80
62589;DHT22;58504;48.770;9.148;2023-12-14T08:57:04;25.70;46.70
62589;DHT22;58504;48.770;9.148;2023-12-14T08:59:32;25.70;46.50
62589;DHT22;58504;48.770;9.148;2023-12-14T09:01:59;25.70;46.70
62589;DHT22;58504;48.770;9.148;2023-12-14T09:04:25;25.70;46.90
62589;DHT22;58504;48.770;9.148;2023-12-14T09:06:52;25.80;46.70
62589;DHT22;58504;48.770;9.148;2023-12-14T09:09:19;25.80;46.60
62589;DHT22;58504;48.770;9.148;2023-12-14T09:11:46;25.80;47.10
62589;DHT22;58504;48.770;9.148;2023-12-14T09:14:12;25.90;47.00
62589;DHT22;58504;48.770;9.148;2023-12-14T09:16:41;25.90;45.80
62589;DHT22;58504;48.770;9.148;2023-12-14T09:19:08;25.90;45.60
62589;DHT22;58504;48.770;9.148;2023-12-14T09:21:34;25.90;45.60
62589;DHT22;58504;48.770;9.148;2023-12-14T09:24:04;25.90;45.70
62589;DHT22;58504;48.770;9.148;2023-12-14T09:26:31;26.00;45.90
62589;DHT22;58504;48.770;9.148;2023-12-14T09:28:57;26.00;46.10
62589;DHT22;58504;48.770;9.148;2023-12-14T09:31:24;26.00;46.90
62589;DHT22;58504;48.770;9.148;2023-12-14T09:33:52;26.10;46.40
62589;DHT22;58504;48.770;9.148;2023-12-14T09:36:19;26.10;46.40
62589;DHT22;58504;48.770;9.148;2023-12-14T09:38:46;26.10;46.20
62589;DHT22;58504;48.770;9.148;2023-12-14T09:41:13;26.10;46.10
62589;DHT22;58504;48.770;9.148;2023-12-14T09:43:39;26.20;46.10
62589;DHT22;58504;48.770;9.148;2023-12-14T09:46:07;26.20;46.00
62589;DHT22;58504;48.770;9.148;2023-12-14T09:48:35;26.20;46.00
62589;DHT22;58504;48.770;9.148;2023-12-14T09:51:04;26.20;45.90
62589;DHT22;58504;48.770;9.148;2023-12-14T09:53:31;26.20;45.90
62589;DHT22;58504;48.770;9.148;2023-12-14T09:55:58;26.20;45.90
62589;DHT22;58504;48.770;9.148;2023-12-14T09:58:25;26.30;45.90
62589;DHT22;58504;48.770;9.148;2023-12-14T10:00:52;26.30;45.80
62589;DHT22;58504;48.770;9.148;2023-12-14T10:03:20;26.30;45.80
62589;DHT22;58504;48.770;9.148;2023-12-14T10:05:48;26.30;47.50
62589;DHT22;58504;48.770;9.148;2023-12-14T10:08:16;26.40;48.50
62589;DHT22;58504;48.770;9.148;2023-12-14T10:10:43;26.50;47.50
62589;DHT22;58504;48.770;9.148;2023-12-14T10:13:10;26.50;47.10
62589;DHT22;58504;48.770;9.148;2023-12-14T10:15:41;26.50;46.90
62589;DHT22;58504;48.770;9.148;2023-12-14T10:18:08;26.50;46.00
62589;DHT22;58504;48.770;9.148;2023-12-14T10:20:34;26.50;45.70
62589;DHT22;58504;48.770;9.148;2023-12-14T10:23:03;26.50;45.70
62589;DHT22;58504;48.770;9.148;2023-12-14T10:25:31;26.40;45.80
62589;DHT22;58504;48.770;9.148;2023-12-14T10:27:58;26.40;46.50
62589;DHT22;58504;48.770;9.148;2023-12-14T10:30:28;26.40;46.90
62589;DHT22;58504;48.770;9.148;2023-12-14T10:32:56;26.40;47.60
62589;DHT22;58504;48.770;9.148;2023-12-14T10:35:23;26.40;46.70
62589;DHT22;58504;48.770;9.148;2023-12-14T10:37:51;26.40;46.80
62589;DHT22;58504;48.770;9.148;2023-12-14T10:40:18;26.40;46.70
62589;DHT22;58504;48.770;9.148;2023-12-14T10:42:47;26.50;46.50
62589;DHT22;58504;48.770;9.148;2023-12-14T10:45:16;26.40;46.20
62589;DHT22;58504;48.770;9.148;2023-12-14T10:47:46;26.40;46.40
62589;DHT22;58504;48.770;9.148;2023-12-14T10:50:13;26.40;46.30
62589;DHT22;58504;48.770;9.148;2023-12-14T10:52:40;26.40;46.10
62589;DHT22;58504;48.770;9.148;2023-12-14T10:55:10;26.40;46.00
62589;DHT22;58504;48.770;9.148;2023-12-14T10:57:38;26.40;45.90
62589;DHT22;58504;48.770;9.148;2023-12-14T11:00:07;26.50;45.90
62589;DHT22;58504;48.770;9.148;2023-12-14T11:02:40;26.40;45.90
62589;DHT22;58504;48.770;9.148;2023-12-14T11:05:09;26.50;45.80
62589;DHT22;58504;48.770;9.148;2023-12-14T11:07:48;26.50;45.80
62589;DHT22;58504;48.770;9.148;2023-12-14T11:10:20;26.50;45.80
62589;DHT22;58504;48.770;9.148;2023-12-14T11:12:55;26.50;45.80
62589;DHT22;58504;48.770;9.148;2023-12-14T11:15:25;26.50;45.50
62589;DHT22;58504;48.770;9.148;2023-12-14T11:18:24;26.40;45.40
62589;DHT22;58504;48.770;9.148;2023-12-14T11:20:53;26.30;45.50
62589;DHT22;58504;48.770;9.148;2023-12-14T11:23:32;26.30;45.60
62589;DHT22;58504;48.770;9.148;2023-12-14T11:26:00;26.20;45.60
62589;DHT22;58504;48.770;9.148;2023-12-14T11:28:30;26.20;45.80
62589;DHT22;58504;48.770;9.148;2023-12-14T11:30:59;26.00;46.00
62589;DHT22;58504;48.770;9.148;2023-12-14T11:33:27;25.90;46.20
62589;DHT22;58504;48.770;9.148;2023-12-14T11:35:54;25.80;46.30
62589;DHT22;58504;48.770;9.148;2023-12-14T11:38:23;25.80;46.60
62589;DHT22;58504;48.770;9.148;2023-12-14T11:40:51;25.80;46.70
62589;DHT22;58504;48.770;9.148;2023-12-14T11:43:17;25.80;46.80
62589;DHT22;58504;48.770;9.148;2023-12-14T11:45:46;25.80;47.30
62589;DHT22;58504;48.770;9.148;2023-12-14T11:48:14;25.80;47.20
62589;DHT22;58504;48.770;9.148;2023-12-14T11:50:42;25.90;47.20
62589;DHT22;58504;48.770;9.148;2023-12-14T11:53:09;26.00;47.30
62589;DHT22;58504;48.770;9.148;2023-12-14T11:55:37;26.00;47.20
62589;DHT22;58504;48.770;9.148;2023-12-14T11:58:06;26.10;47.80
62589;DHT22;58504;48.770;9.148;2023-12-14T12:00:33;26.20;47.00
62589;DHT22;58504;48.770;9.148;2023-12-14T12:03:14;26.20;46.60
62589;DHT22;58504;48.770;9.148;2023-12-14T12:05:43;26.20;46.80
62589;DHT22;58504;48.770;9.148;2023-12-14T12:08:11;26.30;46.70
62589;DHT22;58504;48.770;9.148;2023-12-14T12:10:39;26.30;46.80
62589;DHT22;58504;48.770;9.148;2023-12-14T12:13:07;26.40;46.70
62589;DHT22;58504;48.770;9.148;2023-12-14T12:15:35;26.40;46.50
62589;DHT22;58504;48.770;9.148;2023-12-14T12:18:05;26.40;46.80
62589;DHT22;58504;48.770;9.148;2023-12-14T12:20:33;26.50;48.00
62589;DHT22;58504;48.770;9.148;2023-12-14T12:23:01;26.50;47.20
62589;DHT22;58504;48.770;9.148;2023-12-14T12:25:30;26.50;47.20
62589;DHT22;58504;48.770;9.148;2023-12-14T12:27:57;26.50;46.90
62589;DHT22;58504;48.770;9.148;2023-12-14T12:30:25;26.40;46.70
62589;DHT22;58504;48.770;9.148;2023-12-14T12:32:52;26.40;46.80
62589;DHT22;58504;48.770;9.148;2023-12-14T12:35:19;26.30;46.60
62589;DHT22;58504;48.770;9.148;2023-12-14T12:37:47;26.40;46.60
62589;DHT22;58504;48.770;9.148;2023-12-14T12:40:19;26.30;46.60
62589;DHT22;58504;48.770;9.148;2023-12-14T12:42:46;26.30;46.60
62589;DHT22;58504;48.770;9.148;2023-12-14T12:45:14;26.30;46.80
62589;DHT22;58504;48.770;9.148;2023-12-14T12:47:42;26.30;47.10
62589;DHT22;58504;48.770;9.148;2023-12-14T12:50:09;26.30;47.10
62589;DHT22;58504;48.770;9.148;2023-12-14T12:52:35;26.30;47.20
62589;DHT22;58504;48.770;9.148;2023-12-14T12:55:05;26.30;46.50
62589;DHT22;58504;48.770;9.148;2023-12-14T12:57:32;26.20;45.70
62589;DHT22;58504;48.770;9.148;2023-12-14T12:59:59;26.20;46.40
62589;DHT22;58504;48.770;9.148;2023-12-14T13:02:26;26.20;46.70
62589;DHT22;58504;48.770;9.148;2023-12-14T13:04:52;26.20;46.80
62589;DHT22;58504;48.770;9.148;2023-12-14T13:07:20;26.20;46.90
62589;DHT22;58504;48.770;9.148;2023-12-14T13:09:48;26.10;47.20
62589;DHT22;58504;48.770;9.148;2023-12-14T13:12:19;26.10;47.20
62589;DHT22;58504;48.770;9.148;2023-12-14T13:14:45;26.10;47.10
62589;DHT22;58504;48.770;9.148;2023-12-14T13:17:13;26.10;47.10
62589;DHT22;58504;48.770;9.148;2023-12-14T13:19:43;26.00;47.00
62589;DHT22;58504;48.770;9.148;2023-12-14T13:22:11;26.00;47.10
62589;DHT22;58504;48.770;9.148;2023-12-14T13:24:39;26.00;47.20
62589;DHT22;58504;48.770;9.148;2023-12-14T13:27:06;26.00;47.20
62589;DHT22;58504;48.770;9.148;2023-12-14T13:29:34;26.00;47.20
62589;DHT22;58504;48.770;9.148;2023-12-14T13:32:01;26.00;47.10
62589;DHT22;58504;48.770;9.148;2023-12-14T13:34:28;26.00;47.10
62589;DHT22;58504;48.770;9.148;2023-12-14T13:36:55;26.00;47.10
62589;DHT22;58504;48.770;9.148;2023-12-14T13:39:22;26.00;47.10
62589;DHT22;58504;48.770;9.148;2023-12-14T13:41:49;26.00;47.20
62589;DHT22;58504;48.770;9.148;2023-12-14T13:44:16;26.00;47.20
62589;DHT22;58504;48.770;9.148;2023-12-14T13:46:44;26.00;47.20
62589;DHT22;58504;48.770;9.148;2023-12-14T13:49:11;26.00;48.00
62589;DHT22;58504;48.770;9.148;2023-12-14T13:51:38;26.00;48.90
62589;DHT22;58504;48.770;9.148;2023-12-14T13:54:05;25.90;47.90
62589;DHT22;58504;48.770;9.148;2023-12-14T13:56:33;26.00;47.70
62589;DHT22;58504;48.770;9.148;2023-12-14T13:59:00;26.00;47.50
62589;DHT22;58504;48.770;9.148;2023-12-14T14:01:27;26.00;47.50
62589;DHT22;58504;48.770;9.148;2023-12-14T14:03:55;26.00;47.40
62589;DHT22;58504;48.770;9.148;2023-12-14T14:06:21;26.00;47.30
62589;DHT22;58504;48.770;9.148;2023-12-14T14:08:49;26.00;47.40
62589;DHT22;58504;48.770;9.148;2023-12-14T14:11:15;26.10;47.60
62589;DHT22;58504;48.770;9.148;2023-12-14T14:13:42;26.00;47.40
62589;DHT22;58504;48.770;9.148;2023-12-14T14:16:09;26.00;47.30
62589;DHT22;58504;48.770;9.148;2023-12-14T14:18:36;26.00;47.40
62589;DHT22;58504;48.770;9.148;2023-12-14T14:21:04;26.00;47.90
62589;DHT22;58504;48.770;9.148;2023-12-14T14:23:33;26.00;48.90
62589;DHT22;58504;48.770;9.148;2023-12-14T14:26:00;26.00;48.70
62589;DHT22;58504;48.770;9.148;2023-12-14T14:28:27;26.00;48.00
62589;DHT22;58504;48.770;9.148;2023-12-14T14:30:54;26.00;47.90
62589;DHT22;58504;48.770;9.148;2023-12-14T14:33:21;26.00;47.70
62589;DHT22;58504;48.770;9.148;2023-12-14T14:35:48;26.00;47.60
62589;DHT22;58504;48.770;9.148;2023-12-14T14:38:18;26.00;47.80
62589;DHT22;58504;48.770;9.148;2023-12-14T14:40:45;26.00;47.60
62589;DHT22;58504;48.770;9.148;2023-12-14T14:43:12;26.00;47.60
62589;DHT22;58504;48.770;9.148;2023-12-14T14:45:39;25.90;48.30
62589;DHT22;58504;48.770;9.148;2023-12-14T14:48:06;26.00;48.80
62589;DHT22;58504;48.770;9.148;2023-12-14T14:50:34;25.90;49.00
62589;DHT22;58504;48.770;9.148;2023-12-14T14:53:01;25.90;48.50
62589;DHT22;58504;48.770;9.148;2023-12-14T14:55:29;25.90;48.00
62589;DHT22;58504;48.770;9.148;2023-12-14T14:57:58;26.00;48.90
62589;DHT22;58504;48.770;9.148;2023-12-14T15:00:25;25.90;48.60
62589;DHT22;58504;48.770;9.148;2023-12-14T15:02:52;25.90;49.80
62589;DHT22;58504;48.770;9.148;2023-12-14T15:05:19;25.90;49.70
62589;DHT22;58504;48.770;9.148;2023-12-14T15:07:46;25.80;49.50
62589;DHT22;58504;48.770;9.148;2023-12-14T15:10:13;25.80;48.40
62589;DHT22;58504;48.770;9.148;2023-12-14T15:12:41;25.70;45.20
62589;DHT22;58504;48.770;9.148;2023-12-14T15:15:08;25.60;46.60
62589;DHT22;58504;48.770;9.148;2023-12-14T15:17:36;25.60;47.10
62589;DHT22;58504;48.770;9.148;2023-12-14T15:20:04;25.60;47.50
62589;DHT22;58504;48.770;9.148;2023-12-14T15:22:31;25.70;47.50
62589;DHT22;58504;48.770;9.148;2023-12-14T15:24:58;25.70;47.50
62589;DHT22;58504;48.770;9.148;2023-12-14T15:27:25;25.70;47.50
62589;DHT22;58504;48.770;9.148;2023-12-14T15:29:53;25.80;47.50
62589;DHT22;58504;48.770;9.148;2023-12-14T15:32:20;25.80;47.80